createdAt,value
2023-03-26T00:00:23.926Z,90397.09
2023-03-26T00:03:08.834Z,90395.56
2023-03-26T00:05:53.730Z,90396.75
2023-03-26T00:08:38.774Z,90375.31
2023-03-26T00:11:23.672Z,90364.63
2023-03-26T00:14:08.638Z,90355.97
2023-03-26T00:16:53.727Z,90364.38
2023-03-26T00:19:38.367Z,90362.63
2023-03-26T00:22:23.379Z,90366.72
2023-03-26T00:25:08.281Z,90353.63
2023-03-26T00:27:53.294Z,90353.91
2023-03-26T00:30:38.112Z,90363.13
2023-03-26T00:33:23.120Z,90360.41
2023-03-26T00:36:07.988Z,90372.19
2023-03-26T00:38:53.010Z,90374.47
2023-03-26T00:41:38.027Z,90364.66
2023-03-26T00:44:22.953Z,90359.84
2023-03-26T00:47:07.911Z,90372.25
2023-03-26T00:49:52.839Z,90388.97
2023-03-26T00:52:37.853Z,90397.34
2023-03-26T00:55:22.700Z,90380.84
2023-03-26T00:58:07.733Z,90388.03
2023-03-26T01:00:52.601Z,90388.47
2023-03-26T01:03:37.590Z,90382.97
2023-03-26T01:06:22.382Z,90383.69
2023-03-26T01:09:07.304Z,90394.91
2023-03-26T01:11:52.217Z,90392.19
2023-03-26T01:14:36.965Z,90387.19
2023-03-26T01:17:21.867Z,90397.53
2023-03-26T01:20:06.775Z,90389.81
2023-03-26T01:22:51.788Z,90380.25
2023-03-26T01:25:36.698Z,90373.56
2023-03-26T01:28:21.646Z,90378.28
2023-03-26T01:31:06.510Z,90379.28
2023-03-26T01:33:51.401Z,90377.94
2023-03-26T01:36:36.393Z,90379.91
2023-03-26T01:39:21.263Z,90376.50
2023-03-26T01:42:06.087Z,90371.53
2023-03-26T01:44:51.013Z,90366.81
2023-03-26T01:47:36.059Z,90349.94
2023-03-26T01:50:20.793Z,90341.22
2023-03-26T01:53:05.772Z,90346.22
2023-03-26T01:55:50.669Z,90338.25
2023-03-26T01:58:35.523Z,90328.31
2023-03-26T02:01:20.559Z,90315.63
2023-03-26T02:04:05.423Z,90321.31
2023-03-26T02:06:50.389Z,90303.16
2023-03-26T02:09:35.075Z,90276.34
2023-03-26T02:12:20.093Z,90293.97
2023-03-26T02:15:04.969Z,90282.28
2023-03-26T02:17:49.888Z,90298.53
2023-03-26T02:20:34.764Z,90292.53
2023-03-26T02:23:19.561Z,90297.81
2023-03-26T02:26:04.547Z,90295.84
2023-03-26T02:28:49.515Z,90301.28
2023-03-26T02:31:34.413Z,90292.53
2023-03-26T02:34:19.312Z,90282.81
2023-03-26T02:37:04.247Z,90279.31
2023-03-26T02:39:51.996Z,90282.56
2023-03-26T02:42:36.871Z,90279.56
2023-03-26T02:45:21.692Z,90269.88
2023-03-26T02:48:06.521Z,90262.41
2023-03-26T02:50:51.503Z,90272.75
2023-03-26T02:53:36.411Z,90265.13
2023-03-26T02:56:21.260Z,90266.84
2023-03-26T02:59:06.227Z,90253.69
2023-03-26T03:01:51.128Z,90252.34
2023-03-26T03:04:36.078Z,90251.50
2023-03-26T03:07:20.857Z,90256.97
2023-03-26T03:10:05.754Z,90238.91
2023-03-26T03:12:50.629Z,90239.31
2023-03-26T03:15:35.515Z,90240.81
2023-03-26T03:18:20.383Z,90229.44
2023-03-26T03:21:05.323Z,90232.09
2023-03-26T03:23:50.238Z,90228.38
2023-03-26T03:26:35.186Z,90221.50
2023-03-26T03:29:20.032Z,90224.03
2023-03-26T03:32:04.922Z,90211.53
2023-03-26T03:34:49.997Z,90199.03
2023-03-26T03:37:34.786Z,90194.91
2023-03-26T03:40:19.672Z,90189.22
2023-03-26T03:43:04.506Z,90188.63
2023-03-26T03:45:49.346Z,90194.31
2023-03-26T03:48:34.178Z,90188.84
2023-03-26T03:51:19.090Z,90185.31
2023-03-26T03:54:04.017Z,90174.00
2023-03-26T03:56:48.808Z,90183.75
2023-03-26T03:59:33.727Z,90175.25
2023-03-26T04:02:18.607Z,90177.19
2023-03-26T04:05:03.622Z,90179.09
2023-03-26T04:07:48.333Z,90175.25
2023-03-26T04:10:33.351Z,90173.69
2023-03-26T04:13:18.195Z,90169.19
2023-03-26T04:16:03.222Z,90146.44
2023-03-26T04:18:47.940Z,90151.38
2023-03-26T04:21:32.908Z,90155.59
2023-03-26T04:24:17.951Z,90145.41
2023-03-26T04:27:02.747Z,90140.59
2023-03-26T04:29:47.566Z,90117.81
2023-03-26T04:32:32.450Z,90124.69
2023-03-26T04:35:17.438Z,90112.72
2023-03-26T04:38:02.296Z,90092.91
2023-03-26T04:40:47.250Z,90091.78
2023-03-26T04:43:32.215Z,90105.69
2023-03-26T04:46:17.157Z,90110.94
2023-03-26T04:49:02.075Z,90094.34
2023-03-26T04:51:46.964Z,90089.28
2023-03-26T04:54:31.939Z,90093.88
2023-03-26T04:57:16.703Z,90096.22
2023-03-26T05:00:01.824Z,90057.06
2023-03-26T05:02:46.664Z,90053.91
2023-03-26T05:05:31.565Z,90050.84
2023-03-26T05:08:16.563Z,90051.16
2023-03-26T05:11:01.431Z,90037.22
2023-03-26T05:13:46.541Z,90037.81
2023-03-26T05:16:31.274Z,90043.19
2023-03-26T05:19:16.064Z,90048.09
2023-03-26T05:22:00.888Z,90041.06
2023-03-26T05:24:45.693Z,90040.09
2023-03-26T05:27:30.422Z,90055.84
2023-03-26T05:30:15.483Z,90072.75
2023-03-26T05:33:00.338Z,90086.72
2023-03-26T05:35:45.194Z,90093.28
2023-03-26T05:38:30.125Z,90098.03
2023-03-26T05:41:14.892Z,90106.88
2023-03-26T05:43:59.874Z,90110.75
2023-03-26T05:46:44.668Z,90115.97
2023-03-26T05:49:29.678Z,90121.44
2023-03-26T05:52:14.680Z,90126.84
2023-03-26T05:54:59.625Z,90140.66
2023-03-26T05:57:44.461Z,90144.34
2023-03-26T06:00:29.381Z,90143.78
2023-03-26T06:03:14.543Z,90153.00
2023-03-26T06:05:59.661Z,90148.03
2023-03-26T06:08:44.659Z,90144.50
2023-03-26T06:11:29.441Z,90149.81
2023-03-26T06:14:14.453Z,90127.28
2023-03-26T06:16:59.286Z,90117.22
2023-03-26T06:19:44.212Z,90098.38
2023-03-26T06:22:29.278Z,90094.97
2023-03-26T06:25:14.130Z,90089.00
2023-03-26T06:27:59.142Z,90077.53
2023-03-26T06:30:44.093Z,90090.53
2023-03-26T06:33:29.003Z,90086.66
2023-03-26T06:36:14.027Z,90073.25
2023-03-26T06:38:59.038Z,90060.56
2023-03-26T06:41:43.834Z,90049.19
2023-03-26T06:44:28.712Z,90029.56
2023-03-26T06:47:13.625Z,90016.75
2023-03-26T06:49:58.586Z,90001.91
2023-03-26T06:52:43.424Z,89991.94
2023-03-26T06:55:28.144Z,89995.56
2023-03-26T06:58:13.156Z,89989.88
2023-03-26T07:00:58.193Z,89982.16
2023-03-26T07:03:42.958Z,89987.38
2023-03-26T07:06:27.743Z,89971.28
2023-03-26T07:09:12.509Z,90000.72
2023-03-26T07:11:57.552Z,90007.28
2023-03-26T07:14:42.444Z,90014.75
2023-03-26T07:17:27.391Z,90022.22
2023-03-26T07:20:12.202Z,90019.91
2023-03-26T07:22:57.126Z,90027.25
2023-03-26T07:25:41.935Z,90032.19
2023-03-26T07:28:26.825Z,90029.13
2023-03-26T07:31:11.647Z,90015.50
2023-03-26T07:33:56.605Z,90008.34
2023-03-26T07:36:41.429Z,90007.69
2023-03-26T07:39:28.032Z,90000.34
2023-03-26T07:42:13.064Z,90012.63
2023-03-26T07:44:57.928Z,90012.09
2023-03-26T07:47:43.083Z,90022.78
2023-03-26T07:50:27.962Z,90021.25
2023-03-26T07:53:12.710Z,90031.56
2023-03-26T07:55:57.472Z,90037.94
2023-03-26T07:58:42.481Z,90044.81
2023-03-26T08:01:27.309Z,90035.81
2023-03-26T08:04:24.192Z,90044.97
2023-03-26T08:07:11.014Z,90038.75
2023-03-26T08:09:55.757Z,90035.38
2023-03-26T08:12:40.832Z,90027.91
2023-03-26T08:15:25.716Z,90016.91
2023-03-26T08:18:10.619Z,90019.59
2023-03-26T08:20:55.636Z,90013.28
2023-03-26T08:23:50.742Z,90018.19
2023-03-26T08:26:35.839Z,90012.41
2023-03-26T08:29:20.912Z,90010.13
2023-03-26T08:32:05.735Z,90002.50
2023-03-26T08:34:51.247Z,90014.19
2023-03-26T08:37:36.022Z,90010.25
2023-03-26T08:40:21.080Z,90008.72
2023-03-26T08:43:06.070Z,90019.41
2023-03-26T08:45:50.944Z,90016.16
2023-03-26T08:48:35.731Z,90022.78
2023-03-26T08:51:20.686Z,90029.50
2023-03-26T08:54:05.601Z,90043.56
2023-03-26T08:56:50.501Z,90059.34
2023-03-26T08:59:35.366Z,90055.78
2023-03-26T09:02:20.284Z,90054.38
2023-03-26T09:05:05.344Z,90048.63
2023-03-26T09:07:50.137Z,90044.06
2023-03-26T09:10:34.936Z,90044.59
2023-03-26T09:13:19.913Z,90051.00
2023-03-26T09:16:04.961Z,90047.53
2023-03-26T09:18:49.847Z,90040.16
2023-03-26T09:21:34.785Z,90038.16
2023-03-26T09:24:19.721Z,90042.38
2023-03-26T09:27:04.635Z,90052.09
2023-03-26T09:29:49.614Z,90056.81
2023-03-26T09:32:34.586Z,90049.69
2023-03-26T09:35:19.401Z,90054.50
2023-03-26T09:38:04.356Z,90025.47
2023-03-26T09:43:34.117Z,90005.72
2023-03-26T09:46:20.435Z,89997.81
2023-03-26T09:49:05.565Z,89987.47
2023-03-26T09:51:50.529Z,89998.47
2023-03-26T09:54:37.095Z,89998.03
2023-03-26T09:57:22.062Z,90000.44
2023-03-26T10:00:06.986Z,89999.50
2023-03-26T10:02:52.008Z,90001.13
2023-03-26T10:05:36.863Z,90010.97
2023-03-26T10:08:21.863Z,89997.66
2023-03-26T10:11:07.989Z,90002.56
2023-03-26T10:13:52.878Z,90017.81
2023-03-26T10:16:37.759Z,90019.13
2023-03-26T10:19:23.339Z,90022.66
2023-03-26T10:22:08.045Z,90039.41
2023-03-26T10:24:52.750Z,90049.69
2023-03-26T10:27:37.649Z,90044.00
2023-03-26T10:30:22.578Z,90061.00
2023-03-26T10:33:07.519Z,90062.50
2023-03-26T10:35:52.533Z,90056.13
2023-03-26T10:38:37.261Z,90063.88
2023-03-26T10:41:22.093Z,90069.34
2023-03-26T10:44:08.870Z,90071.22
2023-03-26T10:46:53.792Z,90069.06
2023-03-26T10:49:38.692Z,90061.69
2023-03-26T10:52:23.565Z,90077.19
2023-03-26T10:55:08.555Z,90056.31
2023-03-26T10:57:53.334Z,90065.88
2023-03-26T11:00:42.127Z,90074.56
2023-03-26T11:03:27.123Z,90053.06
2023-03-26T11:06:12.124Z,90063.00
2023-03-26T11:08:57.090Z,90052.50
2023-03-26T11:11:41.961Z,90035.66
2023-03-26T11:14:34.397Z,90022.28
2023-03-26T11:17:39.572Z,90012.03
2023-03-26T11:20:25.272Z,90040.59
2023-03-26T11:23:10.238Z,90023.66
2023-03-26T11:25:55.246Z,89979.09
2023-03-26T11:28:40.327Z,89972.63
2023-03-26T11:31:24.960Z,89980.16
2023-03-26T11:34:09.779Z,89981.25
2023-03-26T11:36:55.314Z,89987.41
2023-03-26T11:39:40.263Z,89978.25
2023-03-26T11:42:25.150Z,89965.94
2023-03-26T11:45:10.395Z,89953.78
2023-03-26T11:47:55.220Z,89936.81
2023-03-26T11:50:40.103Z,89918.53
2023-03-26T11:53:25.047Z,89930.75
2023-03-26T11:56:10.209Z,89905.06
2023-03-26T11:59:02.478Z,89923.38
2023-03-26T12:01:47.308Z,89919.94
2023-03-26T12:04:32.226Z,89925.50
2023-03-26T12:07:16.933Z,89919.94
2023-03-26T12:10:18.072Z,89922.66
2023-03-26T12:13:03.787Z,89896.88
2023-03-26T12:15:48.569Z,89888.13
2023-03-26T12:18:33.503Z,89880.88
2023-03-26T12:21:18.393Z,89886.34
2023-03-26T12:24:03.376Z,89873.38
2023-03-26T12:26:48.390Z,89879.59
2023-03-26T12:29:33.315Z,89889.03
2023-03-26T12:32:18.397Z,89878.06
2023-03-26T12:35:03.297Z,89871.00
2023-03-26T12:37:48.332Z,89844.69
2023-03-26T12:40:33.246Z,89836.94
2023-03-26T12:44:47.213Z,89851.50
2023-03-26T12:47:54.605Z,89848.66
2023-03-26T12:49:27.991Z,89819.53
2023-03-26T12:52:12.778Z,89813.00
2023-03-26T12:54:57.701Z,89794.06
2023-03-26T12:57:42.408Z,89780.81
2023-03-26T13:00:27.404Z,89770.66
2023-03-26T13:03:12.273Z,89757.34
2023-03-26T13:05:57.199Z,89742.19
2023-03-26T13:08:42.162Z,89726.41
2023-03-26T13:11:27.020Z,89719.94
2023-03-26T13:14:12.006Z,89709.41
2023-03-26T13:16:56.908Z,89712.13
2023-03-26T13:19:41.712Z,89716.81
2023-03-26T13:22:26.488Z,89695.66
2023-03-26T13:25:11.283Z,89693.53
2023-03-26T13:27:56.139Z,89684.78
2023-03-26T13:30:41.147Z,89660.78
2023-03-26T13:33:25.943Z,89662.06
2023-03-26T13:36:22.569Z,89648.66
2023-03-26T13:39:08.259Z,89637.53
2023-03-26T13:41:53.236Z,89630.28
2023-03-26T13:44:38.163Z,89639.97
2023-03-26T13:47:23.120Z,89639.19
2023-03-26T13:50:08.186Z,89659.56
2023-03-26T13:52:53.230Z,89682.28
2023-03-26T13:55:38.111Z,89717.56
2023-03-26T13:58:23.041Z,89747.75
2023-03-26T14:01:07.994Z,89768.25
2023-03-26T14:03:52.872Z,89774.72
2023-03-26T14:06:37.875Z,89818.81
2023-03-26T14:09:22.725Z,89809.78
2023-03-26T14:12:07.561Z,89823.44
2023-03-26T14:15:06.502Z,89839.53
2023-03-26T14:17:52.177Z,89856.69
2023-03-26T14:20:37.001Z,89870.69
2023-03-26T14:23:21.771Z,89884.44
2023-03-26T14:26:06.883Z,89899.28
2023-03-26T14:28:51.746Z,89896.19
2023-03-26T14:31:36.619Z,89893.53
2023-03-26T14:34:21.524Z,89907.47
2023-03-26T14:37:06.423Z,89909.63
2023-03-26T14:39:51.356Z,89914.66
2023-03-26T14:42:38.681Z,89904.97
2023-03-26T14:45:23.586Z,89861.16
2023-03-26T14:48:09.926Z,89869.47
2023-03-26T14:50:55.118Z,89869.75
2023-03-26T14:53:40.248Z,89865.31
2023-03-26T14:56:25.013Z,89888.53
2023-03-26T14:59:09.979Z,89894.28
2023-03-26T15:01:54.845Z,89893.06
2023-03-26T15:04:39.828Z,89897.34
2023-03-26T15:07:24.776Z,89892.69
2023-03-26T15:10:09.783Z,89888.47
2023-03-26T15:12:54.674Z,89870.84
2023-03-26T15:15:39.552Z,89879.66
2023-03-26T15:18:24.497Z,89884.72
2023-03-26T15:21:11.204Z,89888.47
2023-03-26T15:23:56.248Z,89885.19
2023-03-26T15:26:41.144Z,89886.44
2023-03-26T15:29:25.979Z,89883.75
2023-03-26T15:32:10.899Z,89887.16
2023-03-26T15:34:55.723Z,89888.47
2023-03-26T15:37:40.801Z,89879.72
2023-03-26T15:40:25.675Z,89881.84
2023-03-26T15:43:10.597Z,89871.94
2023-03-26T15:45:55.551Z,89865.19
2023-03-26T15:48:40.304Z,89861.72
2023-03-26T15:51:25.110Z,89870.94
2023-03-26T15:54:10.017Z,89861.38
2023-03-26T15:56:55.045Z,89864.00
2023-03-26T15:59:39.803Z,89868.22
2023-03-26T16:02:24.857Z,89871.59
2023-03-26T16:05:09.897Z,89866.31
2023-03-26T16:07:55.961Z,89859.50
2023-03-26T16:10:40.774Z,89864.69
2023-03-26T16:13:25.815Z,89864.78
2023-03-26T16:16:10.774Z,89866.09
2023-03-26T16:18:55.636Z,89857.56
2023-03-26T16:21:40.704Z,89850.09
2023-03-26T16:24:25.589Z,89843.16
2023-03-26T16:27:10.576Z,89850.75
2023-03-26T16:29:55.395Z,89848.66
2023-03-26T16:32:40.525Z,89855.53
2023-03-26T16:35:25.295Z,89854.88
2023-03-26T16:38:10.301Z,89853.31
2023-03-26T16:40:56.880Z,89844.97
2023-03-26T16:43:43.983Z,89843.84
2023-03-26T16:46:29.019Z,89836.66
2023-03-26T16:49:13.800Z,89834.88
2023-03-26T16:51:58.968Z,89839.63
2023-03-26T16:54:43.594Z,89837.72
2023-03-26T16:57:28.489Z,89824.47
2023-03-26T17:00:13.366Z,89822.16
2023-03-26T17:02:58.312Z,89821.13
2023-03-26T17:05:43.243Z,89814.59
2023-03-26T17:08:35.477Z,89818.06
2023-03-26T17:11:22.252Z,89820.06
2023-03-26T17:14:07.051Z,89808.19
2023-03-26T17:16:51.970Z,89805.66
2023-03-26T17:19:36.872Z,89801.97
2023-03-26T17:22:21.851Z,89790.19
2023-03-26T17:25:06.731Z,89778.94
2023-03-26T17:27:51.451Z,89777.69
2023-03-26T17:30:36.574Z,89773.59
2023-03-26T17:33:21.756Z,89774.00
2023-03-26T17:36:06.332Z,89766.94
2023-03-26T17:38:51.422Z,89763.56
2023-03-26T17:41:36.336Z,89771.66
2023-03-26T17:44:21.222Z,89759.91
2023-03-26T17:47:06.367Z,89755.19
2023-03-26T17:49:51.229Z,89753.25
2023-03-26T17:52:36.107Z,89754.81
2023-03-26T17:55:21.128Z,89750.19
2023-03-26T17:58:06.067Z,89748.06
2023-03-26T18:00:50.959Z,89739.13
2023-03-26T18:03:36.004Z,89740.47
2023-03-26T18:06:20.873Z,89750.22
2023-03-26T18:09:06.566Z,89752.13
2023-03-26T18:11:52.274Z,89747.25
2023-03-26T18:14:37.069Z,89750.22
2023-03-26T18:17:21.951Z,89751.75
2023-03-26T18:20:06.749Z,89759.81
2023-03-26T18:22:51.653Z,89758.91
2023-03-26T18:25:36.482Z,89748.28
2023-03-26T18:28:21.546Z,89750.97
2023-03-26T18:31:06.489Z,89755.88
2023-03-26T18:33:51.412Z,89747.94
2023-03-26T18:36:36.382Z,89756.34
2023-03-26T18:39:21.175Z,89756.41
2023-03-26T18:42:06.271Z,89760.84
2023-03-26T18:44:51.227Z,89756.47
2023-03-26T18:47:36.187Z,89744.91
2023-03-26T18:50:21.097Z,89743.34
2023-03-26T18:53:05.896Z,89736.19
2023-03-26T18:55:50.772Z,89739.78
2023-03-26T18:58:35.674Z,89731.66
2023-03-26T19:01:25.488Z,89733.75
2023-03-26T19:04:11.124Z,89730.50
2023-03-26T19:06:55.716Z,89718.91
2023-03-26T19:09:40.879Z,89722.09
2023-03-26T19:12:25.572Z,89723.56
2023-03-26T19:15:10.298Z,89727.34
2023-03-26T19:17:55.149Z,89720.31
2023-03-26T19:20:40.086Z,89717.81
2023-03-26T19:23:25.182Z,89703.44
2023-03-26T19:26:09.995Z,89706.16
2023-03-26T19:28:54.845Z,89706.31
2023-03-26T19:31:39.938Z,89702.75
2023-03-26T19:34:25.296Z,89701.44
2023-03-26T19:37:10.175Z,89703.50
2023-03-26T19:39:55.146Z,89708.78
2023-03-26T19:42:42.889Z,89707.31
2023-03-26T19:45:29.249Z,89712.03
2023-03-26T19:48:16.041Z,89712.25
2023-03-26T19:51:03.182Z,89717.19
2023-03-26T19:53:47.998Z,89709.31
2023-03-26T19:56:32.984Z,89702.38
2023-03-26T19:59:17.873Z,89697.28
2023-03-26T20:02:02.728Z,89708.53
2023-03-26T20:04:47.765Z,89711.41
2023-03-26T20:07:35.835Z,89715.06
2023-03-26T20:10:21.038Z,89701.00
2023-03-26T20:13:06.079Z,89699.31
2023-03-26T20:15:51.034Z,89699.53
2023-03-26T20:18:50.974Z,89698.91
2023-03-26T20:21:35.958Z,89695.44
2023-03-26T20:24:20.990Z,89705.31
2023-03-26T20:27:06.092Z,89708.19
2023-03-26T20:29:51.299Z,89698.91
2023-03-26T20:32:36.092Z,89702.38
2023-03-26T20:35:21.022Z,89707.53
2023-03-26T20:38:26.534Z,89703.34
2023-03-26T20:41:17.989Z,89706.81
2023-03-26T20:44:02.794Z,89715.13
2023-03-26T20:46:47.723Z,89718.72
2023-03-26T20:49:32.528Z,89724.53
2023-03-26T20:52:17.386Z,89721.41
2023-03-26T20:55:02.132Z,89719.41
2023-03-26T20:57:47.271Z,89722.13
2023-03-26T21:00:32.166Z,89727.50
2023-03-26T21:03:17.195Z,89729.94
2023-03-26T21:06:01.836Z,89732.16
2023-03-26T21:08:46.696Z,89728.69
2023-03-26T21:11:31.615Z,89742.00
2023-03-26T21:14:16.339Z,89742.44
2023-03-26T21:17:01.504Z,89735.28
2023-03-26T21:19:46.180Z,89739.72
2023-03-26T21:22:31.098Z,89740.97
2023-03-26T21:25:16.145Z,89740.22
2023-03-26T21:28:01.004Z,89736.53
2023-03-26T21:30:45.818Z,89739.28
2023-03-26T21:33:30.795Z,89739.72
2023-03-26T21:36:15.896Z,89737.44
2023-03-26T21:39:00.538Z,89733.81
2023-03-26T21:41:45.489Z,89733.41
2023-03-26T21:44:30.326Z,89730.91
2023-03-26T21:47:15.196Z,89736.88
2023-03-26T21:50:00.106Z,89738.34
2023-03-26T21:52:44.968Z,89746.00
2023-03-26T21:55:29.871Z,89749.53
2023-03-26T21:58:14.741Z,89751.81
2023-03-26T22:00:59.702Z,89761.34
2023-03-26T22:03:44.381Z,89771.06
2023-03-26T22:06:29.254Z,89767.19
2023-03-26T22:09:16.586Z,89774.13
2023-03-26T22:12:03.457Z,89774.19
2023-03-26T22:14:48.360Z,89785.84
2023-03-26T22:17:33.261Z,89778.09
2023-03-26T22:20:18.069Z,89768.44
2023-03-26T22:23:02.905Z,89760.69
2023-03-26T22:25:47.701Z,89763.50
2023-03-26T22:28:32.483Z,89769.59
2023-03-26T22:31:17.359Z,89783.97
2023-03-26T22:34:02.270Z,89802.94
2023-03-26T22:36:47.087Z,89803.72
2023-03-26T22:39:32.005Z,89814.47
2023-03-26T22:42:16.756Z,89820.31
2023-03-26T22:45:01.656Z,89822.63
2023-03-26T22:47:46.516Z,89827.34
2023-03-26T22:50:31.436Z,89835.72
2023-03-26T22:53:16.213Z,89826.28
2023-03-26T22:56:01.182Z,89837.66
2023-03-26T22:58:46.022Z,89839.34
2023-03-26T23:01:30.912Z,89836.63
2023-03-26T23:04:31.689Z,89826.22
2023-03-26T23:07:17.230Z,89823.63
2023-03-26T23:10:02.083Z,89811.47
2023-03-26T23:12:46.747Z,89813.75
2023-03-26T23:15:31.736Z,89816.28
2023-03-26T23:18:16.558Z,89818.50
2023-03-26T23:21:01.467Z,89818.50
2023-03-26T23:23:46.256Z,89820.09
2023-03-26T23:26:37.747Z,89831.59
2023-03-26T23:29:29.329Z,89836.13
2023-03-26T23:32:23.429Z,89830.44
2023-03-26T23:35:09.157Z,89834.56
2023-03-26T23:37:54.009Z,89837.66
2023-03-26T23:40:38.910Z,89838.38
2023-03-26T23:43:23.681Z,89842.13
2023-03-26T23:46:08.554Z,89854.00
2023-03-26T23:48:53.489Z,89855.25
2023-03-26T23:51:38.372Z,89862.44
2023-03-26T23:54:23.201Z,89867.13
2023-03-26T23:57:08.243Z,89875.81
2023-03-26T23:59:52.935Z,89881.03
